createdAt,value
2022-08-03T00:00:00.533Z,58.1
2022-08-03T00:01:01.633Z,58.2
2022-08-03T00:02:02.572Z,58.1
2022-08-03T00:03:03.658Z,58.2
2022-08-03T00:04:04.673Z,58.2
2022-08-03T00:05:06.663Z,58.2
2022-08-03T00:06:07.555Z,58.4
2022-08-03T00:07:08.512Z,58.8
2022-08-03T00:08:09.534Z,58.9
2022-08-03T00:09:10.552Z,59
2022-08-03T00:10:11.493Z,59
2022-08-03T00:11:12.573Z,58.9
2022-08-03T00:12:13.782Z,59
2022-08-03T00:13:14.533Z,59
2022-08-03T00:14:15.633Z,59.3
2022-08-03T00:15:17.152Z,59.4
2022-08-03T00:16:17.566Z,59.4
2022-08-03T00:17:18.573Z,59.5
2022-08-03T00:18:19.493Z,59.5
2022-08-03T00:19:20.892Z,59.3
2022-08-03T00:20:22.579Z,59.8
2022-08-03T00:21:23.593Z,60
2022-08-03T00:22:24.573Z,60.1
2022-08-03T00:23:26.302Z,60.2
2022-08-03T00:24:26.552Z,60.2
2022-08-03T00:25:27.593Z,60.1
2022-08-03T00:26:28.574Z,60.1
2022-08-03T00:27:29.560Z,60.2
2022-08-03T00:28:30.555Z,60
2022-08-03T00:29:31.538Z,60.3
2022-08-03T00:30:32.593Z,60.5
2022-08-03T00:31:39.728Z,60.6
2022-08-03T00:32:34.513Z,60.6
2022-08-03T00:33:58.550Z,60.5
2022-08-03T00:34:57.437Z,60.4
2022-08-03T00:35:50.566Z,60.5
2022-08-03T00:36:38.592Z,60.6
2022-08-03T00:37:40.514Z,60.6
2022-08-03T00:38:40.572Z,60.6
2022-08-03T00:39:41.580Z,60.7
2022-08-03T00:40:42.494Z,60.8
2022-08-03T00:41:43.637Z,60.8
2022-08-03T00:42:44.569Z,60.9
2022-08-03T00:43:45.552Z,61.1
2022-08-03T00:44:46.516Z,60.6
2022-08-03T00:45:47.614Z,61
2022-08-03T00:46:48.680Z,61
2022-08-03T00:47:49.552Z,61
2022-08-03T00:48:50.958Z,61.1
2022-08-03T00:49:52.773Z,61.3
2022-08-03T00:50:54.536Z,61.5
2022-08-03T00:51:55.412Z,61.4
2022-08-03T00:52:56.575Z,61.3
2022-08-03T00:53:57.641Z,61.3
2022-08-03T00:54:58.642Z,61.3
2022-08-03T00:55:59.600Z,61.4
2022-08-03T00:57:00.692Z,61.3
2022-08-03T00:58:01.634Z,61.4
2022-08-03T00:59:02.573Z,61.4
2022-08-03T01:00:03.980Z,61.4
2022-08-03T01:04:03.745Z,61.4
2022-08-03T01:05:05.656Z,61.4
2022-08-03T01:06:06.674Z,61.5
2022-08-03T01:07:10.630Z,61.6
2022-08-03T01:08:09.554Z,61.8
2022-08-03T01:09:10.575Z,61.9
2022-08-03T01:10:11.534Z,61.9
2022-08-03T01:11:12.565Z,62.1
2022-08-03T01:12:13.833Z,62.1
2022-08-03T01:14:00.023Z,62.1
2022-08-03T01:14:19.123Z,62.1
2022-08-03T01:15:16.614Z,62.1
2022-08-03T01:16:17.555Z,62.2
2022-08-03T01:17:18.596Z,62.4
2022-08-03T01:18:19.674Z,62.5
2022-08-03T01:19:20.574Z,62.5
2022-08-03T01:20:21.607Z,62.6
2022-08-03T01:21:22.538Z,62.6
2022-08-03T01:22:23.515Z,62.7
2022-08-03T01:23:24.595Z,62.9
2022-08-03T01:24:25.535Z,63
2022-08-03T01:25:26.574Z,63.2
2022-08-03T01:26:27.541Z,63.2
2022-08-03T01:27:28.554Z,63.2
2022-08-03T01:28:29.594Z,63.2
2022-08-03T01:29:30.655Z,63.2
2022-08-03T01:30:31.581Z,63.1
2022-08-03T01:31:32.555Z,63.1
2022-08-03T01:32:52.593Z,63.1
2022-08-03T01:33:34.576Z,63.1
2022-08-03T01:34:35.536Z,63
2022-08-03T01:35:38.468Z,63
2022-08-03T01:36:37.576Z,62.9
2022-08-03T01:37:38.632Z,63
2022-08-03T01:38:39.695Z,62.9
2022-08-03T01:39:40.634Z,62.5
2022-08-03T01:40:41.574Z,62.7
2022-08-03T01:41:42.602Z,62.8
2022-08-03T01:42:43.574Z,62.7
2022-08-03T01:43:55.682Z,62.7
2022-08-03T01:44:45.616Z,62.8
2022-08-03T01:45:46.575Z,62.7
2022-08-03T01:46:48.816Z,62.7
2022-08-03T01:47:48.564Z,62.7
2022-08-03T01:48:49.575Z,62.8
2022-08-03T01:49:51.175Z,62.6
2022-08-03T01:50:52.582Z,62.7
2022-08-03T01:51:58.722Z,62.7
2022-08-03T01:52:54.578Z,62.8
2022-08-03T01:53:55.554Z,62.8
2022-08-03T01:54:56.575Z,62.7
2022-08-03T01:55:57.595Z,62.6
2022-08-03T01:56:58.615Z,62.5
2022-08-03T01:58:05.062Z,62.5
2022-08-03T01:59:00.574Z,62.6
2022-08-03T02:00:01.696Z,62.6
2022-08-03T02:01:02.689Z,62.8
2022-08-03T02:02:15.893Z,62.8
2022-08-03T02:03:04.658Z,62.8
2022-08-03T02:04:05.554Z,62.3
2022-08-03T02:05:10.554Z,62.7
2022-08-03T02:06:59.213Z,62.6
2022-08-03T02:07:08.594Z,62.9
2022-08-03T02:08:09.654Z,63
2022-08-03T02:09:10.615Z,63.1
2022-08-03T02:10:11.578Z,63.2
2022-08-03T02:11:12.644Z,63.4
2022-08-03T02:12:13.801Z,63.5
2022-08-03T02:13:14.654Z,63.7
2022-08-03T02:14:15.693Z,63.8
2022-08-03T02:15:16.794Z,63.9
2022-08-03T02:16:17.614Z,63.9
2022-08-03T02:17:18.651Z,63.9
2022-08-03T02:18:25.708Z,63.9
2022-08-03T02:19:26.634Z,63.9
2022-08-03T02:20:27.642Z,63.9
2022-08-03T02:21:56.137Z,63.9
2022-08-03T02:22:29.649Z,63.5
2022-08-03T02:23:30.594Z,63.7
2022-08-03T02:24:31.619Z,63.7
2022-08-03T02:25:32.734Z,63.6
2022-08-03T02:26:33.630Z,63.4
2022-08-03T02:27:34.674Z,63.5
2022-08-03T02:28:35.596Z,63.5
2022-08-03T02:29:39.025Z,63.4
2022-08-03T02:30:38.853Z,63.3
2022-08-03T02:31:40.598Z,63.2
2022-08-03T02:32:41.615Z,63.3
2022-08-03T02:33:42.714Z,63.4
2022-08-03T02:34:43.633Z,63.4
2022-08-03T02:35:44.654Z,63.5
2022-08-03T02:36:45.653Z,63.5
2022-08-03T02:37:49.318Z,63.4
2022-08-03T02:38:47.598Z,63.2
2022-08-03T02:39:48.621Z,63.5
2022-08-03T02:40:49.655Z,63.5
2022-08-03T02:41:51.094Z,63.4
2022-08-03T02:42:52.654Z,63.2
2022-08-03T02:44:05.834Z,63
2022-08-03T02:44:54.601Z,63
2022-08-03T02:45:55.574Z,63
2022-08-03T02:46:56.633Z,63
2022-08-03T02:47:57.599Z,63
2022-08-03T02:48:58.759Z,62.9
2022-08-03T02:49:59.885Z,63
2022-08-03T02:51:01.594Z,63
2022-08-03T02:52:02.634Z,63.2
2022-08-03T02:53:03.673Z,63.2
2022-08-03T02:54:04.714Z,63.2
2022-08-03T02:55:05.557Z,63.2
2022-08-03T02:56:06.613Z,63.2
2022-08-03T02:57:07.593Z,63.3
2022-08-03T02:58:14.797Z,63.4
2022-08-03T02:59:15.734Z,63.3
2022-08-03T03:00:19.584Z,63.2
2022-08-03T03:01:18.418Z,63.3
2022-08-03T03:02:20.000Z,63.2
2022-08-03T03:03:21.813Z,63.2
2022-08-03T03:04:24.189Z,63.3
2022-08-03T03:05:53.853Z,63.4
2022-08-03T03:06:25.672Z,63.3
2022-08-03T03:07:26.694Z,63.1
2022-08-03T03:08:28.532Z,63.1
2022-08-03T03:09:29.148Z,63.2
2022-08-03T03:10:29.720Z,63.4
2022-08-03T03:11:30.654Z,63.5
2022-08-03T03:12:31.574Z,63.5
2022-08-03T03:13:32.656Z,63.4
2022-08-03T03:14:34.200Z,63.4
2022-08-03T03:15:34.654Z,63.6
2022-08-03T03:16:35.655Z,63.6
2022-08-03T03:17:36.673Z,63.5
2022-08-03T03:18:37.613Z,63.6
2022-08-03T03:19:38.633Z,63.6
2022-08-03T03:20:39.732Z,63.5
2022-08-03T03:21:40.714Z,63.4
2022-08-03T03:22:41.653Z,63.5
2022-08-03T03:23:42.633Z,63.5
2022-08-03T03:24:43.634Z,63.6
2022-08-03T03:25:44.681Z,63.7
2022-08-03T03:26:45.713Z,63.6
2022-08-03T03:27:47.149Z,63.5
2022-08-03T03:28:47.634Z,63.4
2022-08-03T03:29:48.654Z,63.3
2022-08-03T03:30:52.549Z,62.8
2022-08-03T03:31:51.173Z,63
2022-08-03T03:32:52.853Z,62.9
2022-08-03T03:33:54.652Z,62.9
2022-08-03T03:34:55.652Z,63
2022-08-03T03:35:56.612Z,63
2022-08-03T03:36:57.674Z,63
2022-08-03T03:37:58.641Z,63
2022-08-03T03:38:59.817Z,62.9
2022-08-03T03:40:00.693Z,62.9
2022-08-03T03:41:01.661Z,62.8
2022-08-03T03:42:02.666Z,62.5
2022-08-03T03:43:03.733Z,62.7
2022-08-03T03:44:04.640Z,62.7
2022-08-03T03:45:05.653Z,62.7
2022-08-03T03:46:06.633Z,62.6
2022-08-03T03:47:07.655Z,62.5
2022-08-03T03:48:08.612Z,62.5
2022-08-03T03:49:09.710Z,62.8
2022-08-03T03:50:10.673Z,63
2022-08-03T03:51:11.672Z,62.9
2022-08-03T03:52:12.675Z,62.9
2022-08-03T03:53:13.673Z,62.7
2022-08-03T03:54:14.652Z,62.5
2022-08-03T03:55:15.633Z,62.4
2022-08-03T03:56:16.672Z,62.3
2022-08-03T03:57:17.674Z,62.3
2022-08-03T03:58:18.612Z,62.2
2022-08-03T03:59:19.712Z,62.2
2022-08-03T04:00:20.692Z,62.3
2022-08-03T04:01:21.670Z,62.4
2022-08-03T04:02:22.672Z,62.5
2022-08-03T04:03:23.694Z,62.6
2022-08-03T04:04:24.775Z,62.5
2022-08-03T04:05:25.653Z,62.4
2022-08-03T04:06:26.652Z,62.6
2022-08-03T04:07:27.654Z,62.6
2022-08-03T04:08:28.686Z,62.6
2022-08-03T04:09:29.708Z,62.6
2022-08-03T04:10:30.712Z,62.6
2022-08-03T04:11:31.950Z,62.8
2022-08-03T04:12:32.740Z,62.7
2022-08-03T04:13:33.672Z,62.9
2022-08-03T04:14:34.654Z,62.8
2022-08-03T04:15:35.742Z,62.7
2022-08-03T04:16:38.819Z,62.6
2022-08-03T04:17:37.673Z,62.4
2022-08-03T04:18:38.612Z,62.4
2022-08-03T04:19:39.720Z,62.4
2022-08-03T04:20:40.652Z,62.3
2022-08-03T04:21:41.652Z,62.7
2022-08-03T04:22:42.687Z,62.5
2022-08-03T04:23:43.693Z,62.7
2022-08-03T04:24:44.713Z,62.7
2022-08-03T04:25:45.652Z,62.7
2022-08-03T04:26:50.912Z,62.8
2022-08-03T04:28:07.599Z,62.9
2022-08-03T04:28:48.737Z,62.8
2022-08-03T04:29:49.615Z,62.8
2022-08-03T04:30:51.394Z,63
2022-08-03T04:31:52.732Z,62.8
2022-08-03T04:32:53.752Z,62.9
2022-08-03T04:33:54.633Z,62.8
2022-08-03T04:34:55.713Z,62.6
2022-08-03T04:36:00.951Z,62.5
2022-08-03T04:36:57.773Z,62.6
2022-08-03T04:37:58.801Z,62.8
2022-08-03T04:38:59.934Z,62.8
2022-08-03T04:40:01.799Z,62.9
2022-08-03T04:41:02.672Z,62.9
2022-08-03T04:42:07.751Z,62.8
2022-08-03T04:43:04.713Z,62.8
2022-08-03T04:44:05.792Z,62.9
2022-08-03T04:45:07.073Z,63.1
2022-08-03T04:46:08.852Z,62.8
2022-08-03T04:47:10.852Z,62.6
2022-08-03T04:48:12.912Z,62.5
2022-08-03T04:49:14.839Z,62.4
2022-08-03T04:50:19.482Z,62.3
2022-08-03T04:51:17.929Z,62.3
2022-08-03T04:52:19.794Z,62.4
2022-08-03T04:53:20.612Z,62.4
2022-08-03T04:54:21.713Z,62.2
2022-08-03T04:55:22.713Z,62.4
2022-08-03T04:56:23.682Z,62.6
2022-08-03T04:57:24.753Z,62.7
2022-08-03T04:58:25.693Z,62.8
2022-08-03T04:59:26.732Z,62.8
2022-08-03T05:00:27.773Z,62.8
2022-08-03T05:01:28.823Z,62.9
2022-08-03T05:02:29.775Z,62.8
2022-08-03T05:03:30.734Z,62.9
2022-08-03T05:04:31.871Z,62.9
2022-08-03T05:05:40.682Z,62.9
2022-08-03T05:06:35.766Z,62.9
2022-08-03T05:07:36.839Z,62.9
2022-08-03T05:08:46.015Z,62.8
2022-08-03T05:09:50.379Z,62.6
2022-08-03T05:10:39.778Z,61.9
2022-08-03T05:11:40.714Z,62
2022-08-03T05:12:41.814Z,62.1
2022-08-03T05:13:42.712Z,62.1
2022-08-03T05:14:43.665Z,62.2
2022-08-03T05:15:44.775Z,61.9
2022-08-03T05:16:45.738Z,61.6
2022-08-03T05:17:46.773Z,61.3
2022-08-03T05:18:47.735Z,61.1
2022-08-03T05:19:48.716Z,60.7
2022-08-03T05:20:49.733Z,60.6
2022-08-03T05:21:52.772Z,60.2
2022-08-03T05:22:52.676Z,60
2022-08-03T05:23:53.776Z,59.6
2022-08-03T05:24:54.745Z,59.4
2022-08-03T05:25:55.773Z,59.3
2022-08-03T05:26:56.733Z,59
2022-08-03T05:27:57.697Z,58.6
2022-08-03T05:28:58.710Z,58.5
2022-08-03T05:30:26.450Z,58.5
2022-08-03T05:31:01.773Z,58.4
2022-08-03T05:32:07.847Z,58.5
2022-08-03T05:33:03.828Z,58.3
2022-08-03T05:34:04.793Z,58
2022-08-03T05:35:55.325Z,57.3
2022-08-03T05:36:06.833Z,57.3
2022-08-03T05:37:07.909Z,57.7
2022-08-03T05:38:09.733Z,57.3
2022-08-03T05:39:10.693Z,56.6
2022-08-03T05:40:11.753Z,56.4
2022-08-03T05:41:20.064Z,56.5
2022-08-03T05:42:13.910Z,56.4
2022-08-03T05:43:14.795Z,56
2022-08-03T05:44:15.754Z,56.1
2022-08-03T05:45:16.713Z,55.6
2022-08-03T05:46:17.733Z,54.4
2022-08-03T05:47:18.773Z,53.6
2022-08-03T05:48:19.793Z,53.5
2022-08-03T05:49:20.822Z,53.4
2022-08-03T05:50:21.653Z,53.3
2022-08-03T05:51:22.714Z,53.1
2022-08-03T05:52:24.029Z,52.5
2022-08-03T05:53:27.413Z,52.6
2022-08-03T05:54:55.649Z,52.7
2022-08-03T05:55:29.733Z,52.9
2022-08-03T05:56:30.793Z,53
2022-08-03T05:57:31.741Z,52.8
2022-08-03T05:58:32.863Z,52.5
2022-08-03T05:59:38.327Z,52.2
2022-08-03T06:00:34.745Z,52.1
2022-08-03T06:01:35.844Z,52.2
2022-08-03T06:02:36.714Z,52.6
2022-08-03T06:03:37.715Z,51.7
2022-08-03T06:04:38.754Z,50.9
2022-08-03T06:05:43.260Z,50.7
2022-08-03T06:06:40.853Z,50.1
2022-08-03T06:07:41.741Z,50.2
2022-08-03T06:08:42.843Z,50.4
2022-08-03T06:09:56.660Z,50.1
2022-08-03T06:10:44.826Z,50.2
2022-08-03T06:11:46.021Z,50.2
2022-08-03T06:12:46.703Z,48.5
2022-08-03T06:13:47.757Z,48.3
2022-08-03T06:14:48.796Z,48.5
2022-08-03T06:15:49.733Z,48.6
2022-08-03T06:16:50.774Z,48.3
2022-08-03T06:17:51.753Z,47.6
2022-08-03T06:18:52.735Z,47.7
2022-08-03T06:19:53.734Z,47.3
2022-08-03T06:20:55.006Z,46.9
2022-08-03T06:21:55.783Z,46.4
2022-08-03T06:23:00.067Z,46
2022-08-03T06:23:57.817Z,46.2
2022-08-03T06:24:58.783Z,46.3
2022-08-03T06:25:59.854Z,46.5
2022-08-03T06:27:00.853Z,47.1
2022-08-03T06:28:01.774Z,47.8
2022-08-03T06:29:03.851Z,48.7
2022-08-03T06:30:03.914Z,48.8
2022-08-03T06:31:06.499Z,49.4
2022-08-03T06:32:05.873Z,49.1
2022-08-03T06:33:08.187Z,48.8
2022-08-03T06:34:32.043Z,48.9
2022-08-03T06:35:08.795Z,48.6
2022-08-03T06:36:09.836Z,48.3
2022-08-03T06:37:10.815Z,48.6
2022-08-03T06:38:11.764Z,48.4
2022-08-03T06:39:12.774Z,48.2
2022-08-03T06:40:14.058Z,47.7
2022-08-03T06:41:14.855Z,47.2
2022-08-03T06:42:16.169Z,46.6
2022-08-03T06:43:16.774Z,46.4
2022-08-03T06:44:18.003Z,46.3
2022-08-03T06:45:19.859Z,46.1
2022-08-03T06:46:20.782Z,45.6
2022-08-03T06:47:21.615Z,45.5
2022-08-03T06:48:22.975Z,45.5
2022-08-03T06:49:24.922Z,45.3
2022-08-03T06:50:26.230Z,45
2022-08-03T06:52:02.848Z,45.1
2022-08-03T06:52:37.307Z,45.5
2022-08-03T06:53:28.678Z,45.1
2022-08-03T06:54:32.815Z,44.9
2022-08-03T06:55:30.834Z,44.3
2022-08-03T06:56:31.774Z,45
2022-08-03T06:57:32.794Z,44.4
2022-08-03T06:58:33.774Z,44.2
2022-08-03T07:00:06.766Z,43.5
2022-08-03T07:00:35.774Z,43.7
2022-08-03T07:01:36.789Z,43.4
2022-08-03T07:02:37.798Z,42.7
2022-08-03T07:03:38.795Z,42.6
2022-08-03T07:04:39.855Z,42.7
2022-08-03T07:05:40.755Z,42.7
2022-08-03T07:06:41.754Z,42.1
2022-08-03T07:07:42.815Z,42.2
2022-08-03T07:08:43.854Z,42.1
2022-08-03T07:09:56.550Z,41.6
2022-08-03T07:10:45.775Z,41.1
2022-08-03T07:11:46.735Z,40.8
2022-08-03T07:12:52.899Z,40.7
2022-08-03T07:13:48.862Z,40.3
2022-08-03T07:14:49.775Z,40.3
2022-08-03T07:15:55.200Z,40.1
2022-08-03T07:16:51.962Z,40.4
2022-08-03T07:17:53.723Z,40.4
2022-08-03T07:18:54.764Z,39.9
2022-08-03T07:19:55.818Z,39.5
2022-08-03T07:20:56.816Z,39
2022-08-03T07:21:58.274Z,38.8
2022-08-03T07:22:58.755Z,38.8
2022-08-03T07:23:59.915Z,39.2
2022-08-03T07:25:00.834Z,39.3
2022-08-03T07:26:01.784Z,39.6
2022-08-03T07:27:03.058Z,40
2022-08-03T07:28:04.855Z,40.3
2022-08-03T07:29:11.491Z,40.4
2022-08-03T07:30:07.963Z,40.2
2022-08-03T07:31:09.783Z,40.7
2022-08-03T07:32:10.842Z,41.3
2022-08-03T07:33:11.794Z,41.1
2022-08-03T07:34:13.261Z,41
2022-08-03T07:35:25.155Z,40.9
2022-08-03T07:36:15.814Z,40.3
2022-08-03T07:37:16.795Z,40.4
2022-08-03T07:38:20.862Z,39.6
2022-08-03T07:39:18.825Z,39.4
2022-08-03T07:40:19.894Z,39.3
2022-08-03T07:41:20.879Z,38.9
2022-08-03T07:42:21.955Z,39.2
2022-08-03T07:43:23.894Z,40.3
2022-08-03T07:44:24.814Z,40.8
2022-08-03T07:45:25.794Z,41.2
2022-08-03T07:46:26.855Z,40.7
2022-08-03T07:47:29.432Z,40.8
2022-08-03T07:48:28.834Z,40.9
2022-08-03T07:49:29.962Z,40.6
2022-08-03T07:50:30.913Z,39.6
2022-08-03T07:51:31.727Z,40.5
2022-08-03T07:52:32.814Z,40.3
2022-08-03T07:53:33.814Z,40.3
2022-08-03T07:54:34.854Z,40.7
2022-08-03T07:55:35.935Z,40.4
2022-08-03T07:56:36.835Z,40.3
2022-08-03T07:57:37.813Z,39.9
2022-08-03T07:58:38.814Z,39.7
2022-08-03T07:59:56.377Z,39.1
2022-08-03T08:00:40.993Z,37.9
2022-08-03T08:01:42.124Z,38.1
2022-08-03T08:02:43.801Z,38.2
2022-08-03T08:03:53.142Z,37.7
2022-08-03T08:04:45.814Z,37.8
2022-08-03T08:05:46.813Z,37.1
2022-08-03T08:06:47.814Z,36.7
2022-08-03T08:07:50.951Z,36.8
2022-08-03T08:08:49.814Z,37
2022-08-03T08:09:50.854Z,37
2022-08-03T08:10:58.597Z,38
2022-08-03T08:11:53.034Z,36.7
2022-08-03T08:12:54.816Z,36.3
2022-08-03T08:13:55.844Z,36
2022-08-03T08:14:56.795Z,35.6
2022-08-03T08:15:57.756Z,35.5
2022-08-03T08:16:58.795Z,35
2022-08-03T08:17:59.860Z,35.3
2022-08-03T08:19:00.856Z,34.6
2022-08-03T08:20:01.834Z,34.8
2022-08-03T08:21:02.795Z,34.7
2022-08-03T08:22:03.855Z,34.7
2022-08-03T08:23:09.685Z,35.1
2022-08-03T08:24:09.475Z,34.9
2022-08-03T08:25:06.824Z,34.6
2022-08-03T08:26:08.075Z,35.1
2022-08-03T08:27:09.994Z,34.8
2022-08-03T08:28:21.828Z,34.5
2022-08-03T08:29:12.853Z,34.3
2022-08-03T08:30:17.314Z,34.7
2022-08-03T08:31:14.794Z,34.4
2022-08-03T08:32:16.124Z,34.3
2022-08-03T08:33:22.886Z,34.2
2022-08-03T08:34:17.873Z,34
2022-08-03T08:35:18.819Z,33.9
2022-08-03T08:36:20.016Z,33.9
2022-08-03T08:37:20.853Z,33.8
2022-08-03T08:38:21.792Z,33.5
2022-08-03T08:39:22.893Z,33.4
2022-08-03T08:40:23.874Z,32.9
2022-08-03T08:41:24.956Z,33.3
2022-08-03T08:42:25.998Z,33.3
2022-08-03T08:43:27.913Z,33.8
2022-08-03T08:44:28.894Z,34.1
2022-08-03T08:45:30.031Z,33.6
2022-08-03T08:46:30.852Z,33.4
2022-08-03T08:47:50.722Z,33.4
2022-08-03T08:48:32.854Z,33.5
2022-08-03T08:49:34.004Z,33.5
2022-08-03T08:50:34.968Z,32.8
2022-08-03T08:51:43.914Z,32.9
2022-08-03T08:52:38.053Z,32.8
2022-08-03T08:53:39.916Z,32.6
2022-08-03T08:54:40.914Z,32.8
2022-08-03T08:55:56.644Z,32.8
2022-08-03T08:56:42.876Z,32.4
2022-08-03T08:57:43.820Z,32.8
2022-08-03T08:58:44.801Z,33.3
2022-08-03T08:59:48.082Z,33.5
2022-08-03T09:00:46.876Z,33.5
2022-08-03T09:01:47.853Z,33.2
2022-08-03T09:02:48.883Z,33.4
2022-08-03T09:03:49.874Z,33
2022-08-03T09:04:50.916Z,32.7
2022-08-03T09:05:56.266Z,32.9
2022-08-03T09:07:10.754Z,32.8
2022-08-03T09:07:53.898Z,32.5
2022-08-03T09:08:55.073Z,31.9
2022-08-03T09:10:00.422Z,31.5
2022-08-03T09:10:57.917Z,31.8
2022-08-03T09:12:14.546Z,31.7
2022-08-03T09:12:59.933Z,31.2
2022-08-03T09:14:00.894Z,31.3
2022-08-03T09:15:16.237Z,31
2022-08-03T09:16:03.012Z,31
2022-08-03T09:17:03.936Z,31.1
2022-08-03T09:18:04.875Z,30.9
2022-08-03T09:19:05.894Z,30.6
2022-08-03T09:20:06.993Z,30.6
2022-08-03T09:21:24.474Z,30.3
2022-08-03T09:22:08.834Z,29.6
2022-08-03T09:23:43.014Z,30.5
2022-08-03T09:24:20.844Z,30
2022-08-03T09:25:24.139Z,29.9
2022-08-03T09:26:12.815Z,29.9
2022-08-03T09:27:13.854Z,30.1
2022-08-03T09:28:33.744Z,30.2
2022-08-03T09:29:15.873Z,30.8
2022-08-03T09:30:19.229Z,30.6
2022-08-03T09:31:17.898Z,30.2
2022-08-03T09:32:19.002Z,30
2022-08-03T09:33:20.894Z,30.3
2022-08-03T09:34:21.894Z,29.3
2022-08-03T09:35:27.970Z,29.5
2022-08-03T09:36:23.813Z,29.2
2022-08-03T09:38:06.024Z,29.4
2022-08-03T09:38:25.873Z,29.7
2022-08-03T09:39:40.891Z,30.2
2022-08-03T09:40:27.854Z,29.7
2022-08-03T09:41:28.893Z,29.1
2022-08-03T09:42:29.854Z,29.1
2022-08-03T09:43:30.914Z,29.1
2022-08-03T09:44:31.913Z,29.2
2022-08-03T09:45:32.893Z,29.3
2022-08-03T09:46:33.892Z,29.9
2022-08-03T09:47:35.023Z,30.1
2022-08-03T09:48:35.873Z,31.2
2022-08-03T09:49:36.946Z,29.8
2022-08-03T09:50:37.853Z,29.4
2022-08-03T09:52:29.009Z,29.4
2022-08-03T09:52:49.503Z,30
2022-08-03T09:53:49.559Z,29.1
2022-08-03T09:54:43.919Z,28.7
2022-08-03T09:56:32.616Z,29
2022-08-03T09:56:45.869Z,28.4
2022-08-03T09:57:46.938Z,28
2022-08-03T09:58:47.953Z,27.8
2022-08-03T09:59:48.874Z,27.8
2022-08-03T10:00:49.968Z,28.8
2022-08-03T10:01:50.853Z,28.5
2022-08-03T10:02:52.014Z,28.8
2022-08-03T10:04:02.868Z,28.6
2022-08-03T10:04:53.874Z,28.2
2022-08-03T10:05:59.146Z,27.8
2022-08-03T10:06:55.913Z,28
2022-08-03T10:07:56.872Z,28
2022-08-03T10:08:57.952Z,27.8
2022-08-03T10:10:29.223Z,27.5
2022-08-03T10:10:59.894Z,27.2
2022-08-03T10:12:00.913Z,27
2022-08-03T10:13:01.812Z,27.5
2022-08-03T10:14:02.993Z,27.3
2022-08-03T10:15:04.075Z,27.2
2022-08-03T10:16:21.037Z,27.2
2022-08-03T10:17:05.994Z,28
2022-08-03T10:18:07.033Z,27.5
2022-08-03T10:19:08.013Z,27.4
2022-08-03T10:20:08.981Z,27.4
2022-08-03T10:21:09.914Z,27.6
2022-08-03T10:22:10.913Z,27.9
2022-08-03T10:23:11.954Z,28.1
2022-08-03T10:24:12.822Z,28.3
2022-08-03T10:25:14.014Z,28.7
2022-08-03T10:26:14.893Z,28.8
2022-08-03T10:27:16.096Z,28.1
2022-08-03T10:28:16.977Z,28.3
2022-08-03T10:29:18.634Z,28.3
2022-08-03T10:30:20.021Z,27.6
2022-08-03T10:31:20.926Z,27.2
2022-08-03T10:32:21.954Z,27.6
2022-08-03T10:33:49.423Z,27.8
2022-08-03T10:34:23.954Z,27.6
2022-08-03T10:35:25.013Z,26.9
2022-08-03T10:36:25.998Z,26.9
2022-08-03T10:37:26.900Z,27
2022-08-03T10:38:27.872Z,27.1
2022-08-03T10:39:28.855Z,26.9
2022-08-03T10:41:31.075Z,27.5
2022-08-03T10:42:31.913Z,27.2
2022-08-03T10:43:32.997Z,26.9
2022-08-03T10:44:33.861Z,27.8
2022-08-03T10:45:34.994Z,27.5
2022-08-03T10:46:35.893Z,27.5
2022-08-03T10:47:37.036Z,27.9
2022-08-03T10:48:38.033Z,27.7
2022-08-03T10:49:39.221Z,27.4
2022-08-03T10:50:41.008Z,27.6
2022-08-03T10:51:41.933Z,27.4
2022-08-03T10:52:45.358Z,27.2
2022-08-03T10:53:46.227Z,26.6
2022-08-03T10:54:44.912Z,26.6
2022-08-03T10:55:45.994Z,27.4
2022-08-03T10:56:49.939Z,27.2
2022-08-03T10:57:48.941Z,27.5
2022-08-03T10:58:53.161Z,27.1
2022-08-03T10:59:49.922Z,27.1
2022-08-03T11:00:51.027Z,27.4
2022-08-03T11:01:59.357Z,27.7
2022-08-03T11:02:52.893Z,27.2
2022-08-03T11:03:53.914Z,26.7
2022-08-03T11:04:54.954Z,26.4
2022-08-03T11:05:56.033Z,26.4
2022-08-03T11:06:56.914Z,26.4
2022-08-03T11:07:57.894Z,26.1
2022-08-03T11:08:58.972Z,25.9
2022-08-03T11:10:00.028Z,26.3
2022-08-03T11:11:01.056Z,26.5
2022-08-03T11:12:01.956Z,26.8
2022-08-03T11:13:03.016Z,25.5
2022-08-03T11:14:04.022Z,25.7
2022-08-03T11:15:05.012Z,25.9
2022-08-03T11:16:07.149Z,26.2
2022-08-03T11:17:06.927Z,26.5
2022-08-03T11:18:07.973Z,26.1
2022-08-03T11:19:08.973Z,26.3
2022-08-03T11:20:09.994Z,26.3
2022-08-03T11:21:10.955Z,26.5
2022-08-03T11:22:11.906Z,26.1
2022-08-03T11:23:12.952Z,26.9
2022-08-03T11:24:13.913Z,26.2
2022-08-03T11:25:53.284Z,26.2
2022-08-03T11:26:16.014Z,26.3
2022-08-03T11:27:17.195Z,26.5
2022-08-03T11:28:18.042Z,26.9
2022-08-03T11:29:18.975Z,27
2022-08-03T11:30:20.065Z,26.5
2022-08-03T11:31:39.515Z,26.9
2022-08-03T11:32:21.994Z,26.6
2022-08-03T11:33:22.908Z,26
2022-08-03T11:34:23.961Z,26.3
2022-08-03T11:35:24.975Z,26.3
2022-08-03T11:36:32.187Z,26.2
2022-08-03T11:37:32.926Z,26.5
2022-08-03T11:38:28.954Z,25.5
2022-08-03T11:39:33.021Z,25.3
2022-08-03T11:40:33.953Z,24.3
2022-08-03T11:41:42.828Z,24.3
2022-08-03T11:42:35.993Z,24
2022-08-03T11:43:36.994Z,24.3
2022-08-03T11:44:37.872Z,24.6
2022-08-03T11:45:38.953Z,24.9
2022-08-03T11:46:39.973Z,25.2
2022-08-03T11:47:50.338Z,25.2
2022-08-03T11:48:41.973Z,25.6
2022-08-03T11:49:43.016Z,25.4
2022-08-03T11:50:43.969Z,24.6
2022-08-03T11:51:45.195Z,24
2022-08-03T11:52:46.993Z,24.2
2022-08-03T11:53:47.955Z,24.2
2022-08-03T11:54:48.933Z,24.9
2022-08-03T11:55:49.984Z,25
2022-08-03T11:56:51.028Z,25
2022-08-03T11:58:57.263Z,26
2022-08-03T11:59:00.432Z,24.7
2022-08-03T11:59:54.042Z,24.4
2022-08-03T12:00:55.014Z,24.8
2022-08-03T12:01:55.973Z,25
2022-08-03T12:02:57.198Z,24.2
2022-08-03T12:03:59.149Z,23.6
2022-08-03T12:05:00.054Z,23.4
2022-08-03T12:06:00.953Z,23.2
2022-08-03T12:07:01.933Z,23.8
2022-08-03T12:08:06.577Z,23.3
2022-08-03T12:09:04.913Z,22.8
2022-08-03T12:10:05.975Z,23.3
2022-08-03T12:11:06.917Z,23.9
2022-08-03T12:12:08.001Z,24.4
2022-08-03T12:13:57.295Z,23.6
2022-08-03T12:14:46.047Z,23.7
2022-08-03T12:15:12.017Z,24.1
2022-08-03T12:16:12.994Z,24.2
2022-08-03T12:17:13.933Z,23.6
2022-08-03T12:18:14.994Z,23.3
2022-08-03T12:19:15.995Z,22.7
2022-08-03T12:20:16.944Z,22.5
2022-08-03T12:21:18.033Z,22.6
2022-08-03T12:22:18.997Z,22.2
2022-08-03T12:23:20.053Z,22.5
2022-08-03T12:24:21.034Z,22.8
2022-08-03T12:25:26.981Z,23
2022-08-03T12:26:23.015Z,23.2
2022-08-03T12:27:24.169Z,23
2022-08-03T12:28:28.501Z,22.9
2022-08-03T12:29:27.024Z,23.1
2022-08-03T12:30:28.017Z,22.9
2022-08-03T12:31:28.993Z,23
2022-08-03T12:32:29.911Z,22.7
2022-08-03T12:33:30.974Z,22.7
2022-08-03T12:34:31.978Z,22.8
2022-08-03T12:35:33.037Z,23.1
2022-08-03T12:36:33.973Z,23.1
2022-08-03T12:37:35.196Z,23
2022-08-03T12:38:36.360Z,22.6
2022-08-03T12:39:36.934Z,22.6
2022-08-03T12:40:38.034Z,22.3
2022-08-03T12:41:38.981Z,22.7
2022-08-03T12:42:40.041Z,21.9
2022-08-03T12:43:40.953Z,21.8
2022-08-03T12:44:41.934Z,21.3
2022-08-03T12:45:43.015Z,20.2
2022-08-03T12:46:47.642Z,19.8
2022-08-03T12:47:44.994Z,20.5
2022-08-03T12:48:46.033Z,20.9
2022-08-03T12:49:47.054Z,21.5
2022-08-03T12:50:48.114Z,21.4
2022-08-03T12:51:48.886Z,21.5
2022-08-03T12:52:49.993Z,20.7
2022-08-03T12:53:51.101Z,21
2022-08-03T12:54:52.014Z,20.1
2022-08-03T12:55:57.472Z,19.8
2022-08-03T12:56:53.994Z,19.1
2022-08-03T12:57:54.993Z,18.4
2022-08-03T12:58:56.179Z,18.8
2022-08-03T12:59:58.034Z,18.8
2022-08-03T13:00:59.154Z,19
2022-08-03T13:02:00.058Z,19.3
2022-08-03T13:03:26.397Z,20.1
2022-08-03T13:04:01.960Z,19.9
2022-08-03T13:05:03.084Z,18.7
2022-08-03T13:06:04.090Z,18.3
2022-08-03T13:07:05.033Z,18.2
2022-08-03T13:08:06.077Z,17.8
2022-08-03T13:09:07.095Z,18.1
2022-08-03T13:10:08.388Z,18.9
2022-08-03T13:11:09.170Z,18.5
2022-08-03T13:12:11.145Z,17.7
2022-08-03T13:13:12.077Z,17.6
2022-08-03T13:14:13.584Z,17.9
2022-08-03T13:15:14.036Z,18.3
2022-08-03T13:16:19.116Z,18.4
2022-08-03T13:17:15.914Z,18.3
2022-08-03T13:18:17.409Z,18.7
2022-08-03T13:19:18.020Z,19.2
2022-08-03T13:20:19.442Z,19.3
2022-08-03T13:21:21.078Z,20.4
2022-08-03T13:22:22.014Z,19.7
2022-08-03T13:23:23.078Z,19.9
2022-08-03T13:24:23.993Z,19.7
2022-08-03T13:25:25.055Z,20.5
2022-08-03T13:26:26.114Z,20.3
2022-08-03T13:28:11.200Z,20.1
2022-08-03T13:28:28.314Z,20.7
2022-08-03T13:29:30.043Z,21.5
2022-08-03T13:30:31.100Z,21.1
2022-08-03T13:31:32.002Z,20.6
2022-08-03T13:32:33.016Z,21.1
2022-08-03T13:33:34.128Z,20.1
2022-08-03T13:34:34.979Z,19.9
2022-08-03T13:35:36.054Z,20.9
2022-08-03T13:36:59.382Z,20.9
2022-08-03T13:37:38.081Z,19.8
2022-08-03T13:38:39.274Z,20.2
2022-08-03T13:39:48.497Z,20.8
2022-08-03T13:40:43.101Z,20.1
2022-08-03T13:41:43.994Z,20.2